createdAt,value
2022-11-15T00:02:33.808Z,15.63
2022-11-15T00:08:38.411Z,15.77
2022-11-15T00:14:42.063Z,19.05
2022-11-15T00:20:46.817Z,19.00
2022-11-15T00:26:50.169Z,17.58
2022-11-15T00:32:53.742Z,16.23
2022-11-15T00:38:58.598Z,17.25
2022-11-15T00:45:02.009Z,13.20
2022-11-15T00:51:05.401Z,11.50
2022-11-15T00:57:10.053Z,12.13
2022-11-15T01:03:13.444Z,15.00
2022-11-15T01:09:17.143Z,12.57
2022-11-15T01:15:22.097Z,11.48
2022-11-15T01:21:25.490Z,10.43
2022-11-15T01:27:28.829Z,11.80
2022-11-15T01:33:34.052Z,9.15
2022-11-15T01:39:37.554Z,8.10
2022-11-15T01:45:41.008Z,10.25
2022-11-15T01:51:46.059Z,10.43
2022-11-15T01:57:50.499Z,6.78
2022-11-15T02:03:55.314Z,7.63
2022-11-15T02:10:01.818Z,9.23
2022-11-15T02:16:11.822Z,7.43
2022-11-15T02:22:19.764Z,7.78
2022-11-15T02:28:40.086Z,4.10
2022-11-15T02:34:50.501Z,5.22
2022-11-15T02:40:56.864Z,7.68
2022-11-15T02:47:22.777Z,6.63
2022-11-15T02:53:29.361Z,5.75
2022-11-15T02:59:48.282Z,8.05
2022-11-15T03:05:54.729Z,5.47
2022-11-15T03:12:02.837Z,5.45
2022-11-15T03:18:07.973Z,5.13
2022-11-15T03:24:11.604Z,6.43
2022-11-15T03:30:16.753Z,8.00
2022-11-15T03:36:20.426Z,3.40
2022-11-15T03:42:25.524Z,6.25
2022-11-15T03:48:33.953Z,3.97
2022-11-15T03:54:37.433Z,6.13
2022-11-15T04:00:40.863Z,6.90
2022-11-15T04:06:45.698Z,6.93
2022-11-15T04:12:49.489Z,6.95
2022-11-15T04:19:12.893Z,5.30
2022-11-15T04:25:22.919Z,5.72
2022-11-15T04:31:27.187Z,5.57
2022-11-15T04:37:30.546Z,6.68
2022-11-15T04:43:35.546Z,6.63
2022-11-15T04:49:39.084Z,8.88
2022-11-15T04:55:42.587Z,5.78
2022-11-15T05:01:47.326Z,7.47
2022-11-15T05:07:50.728Z,6.85
2022-11-15T05:13:54.405Z,7.72
2022-11-15T05:19:59.162Z,6.50
2022-11-15T05:26:07.888Z,6.85
2022-11-15T05:32:14.417Z,6.93
2022-11-15T05:38:19.444Z,7.63
2022-11-15T05:44:24.252Z,4.88
2022-11-15T05:50:27.674Z,5.15
2022-11-15T05:56:32.828Z,7.25
2022-11-15T06:02:36.282Z,11.57
2022-11-15T06:08:39.924Z,12.05
2022-11-15T06:14:44.680Z,19.48
2022-11-15T06:20:48.175Z,26.30
2022-11-15T06:26:51.495Z,7.78
2022-11-15T06:33:00.988Z,11.85
2022-11-15T06:39:04.904Z,20.77
2022-11-15T06:45:08.617Z,8.43
2022-11-15T06:51:13.327Z,22.08
2022-11-15T06:57:16.650Z,15.73
2022-11-15T07:03:20.090Z,13.27
2022-11-15T07:09:25.280Z,12.50
2022-11-15T07:15:29.109Z,14.13
2022-11-15T07:21:32.562Z,13.48
2022-11-15T07:27:37.464Z,11.57
2022-11-15T07:33:40.988Z,8.10
2022-11-15T07:39:45.129Z,10.55
2022-11-15T07:45:52.382Z,7.78
2022-11-15T07:51:58.335Z,10.48
2022-11-15T07:58:04.722Z,7.60
2022-11-15T08:04:09.471Z,8.35
2022-11-15T08:10:12.999Z,8.02
2022-11-15T08:16:16.856Z,4.45
2022-11-15T08:22:21.983Z,7.25
2022-11-15T08:28:25.299Z,5.18
2022-11-15T08:34:28.832Z,3.35
2022-11-15T08:40:33.545Z,4.45
2022-11-15T08:46:36.916Z,5.10
2022-11-15T08:52:40.299Z,8.43
2022-11-15T08:58:45.050Z,4.07
2022-11-15T09:04:49.125Z,7.72
2022-11-15T09:10:52.847Z,3.90
2022-11-15T09:16:57.554Z,5.95
2022-11-15T09:23:02.834Z,4.65
2022-11-15T09:29:06.383Z,4.68
2022-11-15T09:35:11.235Z,4.13
2022-11-15T09:41:28.653Z,5.43
2022-11-15T09:47:41.277Z,3.35
2022-11-15T09:54:30.810Z,6.85
2022-11-15T10:06:43.774Z,2.33
2022-11-15T10:12:50.915Z,4.93
2022-11-15T10:18:56.606Z,5.03
2022-11-15T10:25:13.753Z,7.03
2022-11-15T10:31:28.970Z,6.10
2022-11-15T10:37:33.150Z,2.10
2022-11-15T10:43:36.530Z,5.00
2022-11-15T10:49:55.285Z,5.72
2022-11-15T10:56:00.586Z,5.88
2022-11-15T11:02:03.972Z,3.90
2022-11-15T11:08:21.730Z,4.82
2022-11-15T11:14:28.143Z,2.35
2022-11-15T11:20:34.410Z,6.72
2022-11-15T11:26:43.655Z,4.50
2022-11-15T11:32:55.464Z,4.85
2022-11-15T11:39:09.695Z,6.72
2022-11-15T11:45:18.490Z,4.00
2022-11-15T11:51:26.333Z,6.18
2022-11-15T11:57:35.804Z,6.00
2022-11-15T12:03:42.790Z,4.60
2022-11-15T12:09:47.612Z,5.05
2022-11-15T12:15:55.444Z,5.40
2022-11-15T12:22:03.370Z,2.22
2022-11-15T12:28:10.587Z,4.93
2022-11-15T12:34:31.924Z,3.88
2022-11-15T12:40:40.655Z,3.67
2022-11-15T12:47:04.617Z,2.45
2022-11-15T12:53:22.814Z,4.18
2022-11-15T12:59:41.118Z,3.70
2022-11-15T13:05:57.858Z,2.30
2022-11-15T13:12:02.788Z,2.85
2022-11-15T13:18:29.118Z,3.88
2022-11-15T13:24:34.082Z,2.17
2022-11-15T13:30:37.526Z,2.25
2022-11-15T13:36:40.923Z,2.22
2022-11-15T13:42:46.053Z,2.35
2022-11-15T13:48:50.028Z,3.42
2022-11-15T13:54:56.459Z,4.63
2022-11-15T14:01:05.096Z,3.22
2022-11-15T14:07:08.504Z,2.10
2022-11-15T14:13:28.957Z,2.42
2022-11-15T14:19:41.290Z,2.67
2022-11-15T14:25:55.053Z,6.35
2022-11-15T14:32:08.755Z,3.13
2022-11-15T14:38:13.523Z,4.05
2022-11-15T14:44:19.474Z,3.38
2022-11-15T14:50:23.900Z,4.20
2022-11-15T14:56:28.806Z,4.70
2022-11-15T15:02:32.123Z,3.45
2022-11-15T15:08:36.325Z,3.08
2022-11-15T15:14:41.384Z,2.60
2022-11-15T15:20:46.586Z,2.92
2022-11-15T15:26:50.721Z,2.25
2022-11-15T15:32:55.884Z,3.55
2022-11-15T15:38:59.240Z,2.92
2022-11-15T15:45:02.653Z,3.05
2022-11-15T15:51:15.434Z,5.55
2022-11-15T15:57:23.299Z,2.80
2022-11-15T16:03:28.457Z,4.57
2022-11-15T16:09:50.897Z,3.20
2022-11-15T16:15:55.836Z,8.48
2022-11-15T16:21:59.243Z,4.70
2022-11-15T16:28:04.228Z,4.20
2022-11-15T16:34:08.163Z,5.38
2022-11-15T16:40:15.488Z,3.92
2022-11-15T16:46:21.197Z,5.32
2022-11-15T16:52:24.530Z,3.40
2022-11-15T16:58:27.966Z,4.03
2022-11-15T17:04:33.842Z,4.00
2022-11-15T17:10:40.813Z,3.90
2022-11-15T17:16:44.588Z,4.25
2022-11-15T17:22:49.402Z,3.90
2022-11-15T17:28:56.514Z,9.10
2022-11-15T17:34:59.875Z,16.95
2022-11-15T17:41:06.036Z,29.27
2022-11-15T17:47:09.423Z,35.67
2022-11-15T17:53:13.145Z,8.68
2022-11-15T17:59:21.380Z,18.92
2022-11-15T18:05:25.027Z,13.23
2022-11-15T18:11:29.187Z,18.75
2022-11-15T18:17:33.926Z,18.42
2022-11-15T18:23:37.299Z,16.33
2022-11-15T18:29:40.730Z,9.10
2022-11-15T18:35:45.624Z,6.78
2022-11-15T18:41:49.233Z,6.50
2022-11-15T18:47:52.813Z,5.53
2022-11-15T18:53:58.088Z,9.30
2022-11-15T19:00:01.670Z,29.70
2022-11-15T19:06:06.165Z,6.57
2022-11-15T19:12:11.298Z,9.13
2022-11-15T19:18:14.704Z,8.05
2022-11-15T19:24:18.626Z,29.20
2022-11-15T19:30:23.483Z,120.87
2022-11-15T19:36:27.651Z,110.38
2022-11-15T19:42:31.003Z,19.60
2022-11-15T19:48:37.788Z,8.60
2022-11-15T19:54:42.346Z,5.65
2022-11-15T20:00:45.863Z,5.22
2022-11-15T20:06:50.696Z,6.18
2022-11-15T20:12:54.108Z,6.72
2022-11-15T20:18:57.498Z,9.13
2022-11-15T20:25:02.240Z,7.30
2022-11-15T20:31:06.474Z,8.68
2022-11-15T20:37:10.200Z,9.23
2022-11-15T20:43:15.893Z,13.30
2022-11-15T20:49:19.244Z,9.70
2022-11-15T20:55:23.307Z,7.53
2022-11-15T21:01:28.264Z,8.70
2022-11-15T21:07:31.786Z,5.97
2022-11-15T21:13:35.208Z,5.88
2022-11-15T21:19:39.889Z,6.30
2022-11-15T21:25:43.257Z,8.25
2022-11-15T21:31:46.807Z,7.93
2022-11-15T21:37:56.501Z,7.95
2022-11-15T21:44:00.463Z,9.65
2022-11-15T21:50:04.040Z,5.47
2022-11-15T21:56:09.374Z,4.93
2022-11-15T22:02:15.733Z,2.38
2022-11-15T22:08:19.084Z,1.65
2022-11-15T22:14:23.817Z,2.05
2022-11-15T22:20:44.088Z,2.42
2022-11-15T22:26:48.660Z,3.15
2022-11-15T22:32:53.733Z,2.15
2022-11-15T22:38:57.250Z,3.22
2022-11-15T22:45:00.911Z,4.45
2022-11-15T22:51:05.863Z,2.90
2022-11-15T22:57:09.166Z,2.75
2022-11-15T23:03:12.602Z,3.88
2022-11-15T23:09:17.829Z,9.48
2022-11-15T23:15:21.224Z,13.70
2022-11-15T23:21:43.245Z,13.73
2022-11-15T23:27:47.965Z,14.55
2022-11-15T23:34:00.486Z,7.30
2022-11-15T23:40:03.851Z,9.98
2022-11-15T23:46:08.859Z,7.80
2022-11-15T23:52:12.567Z,5.68
2022-11-15T23:58:15.886Z,5.95
